Time;durP1;ratioP1;P1;durP2;ratioP2;P2;SDS_P1;SDS_P2;PMS_P1;PMS_P2;Temp;Humidity;BMP_temperature;BMP_pressure;BME280_temperature;BME280_humidity;BME280_pressure;Samples;Min_cycle;Max_cycle;Signal;HPM_P1;HPM_P2
2021/08/20 00:01:56;;;;;;;0.80;0.80;;;22.50;52.60;;;26.24;35.94;101075.75;5092639;28;20117;-35
2021/08/20 00:04:22;;;;;;;0.70;0.70;;;22.50;52.60;;;26.27;35.97;101077.31;5092737;28;20052;-35
2021/08/20 00:06:48;;;;;;;0.70;0.70;;;22.50;52.70;;;26.27;36.10;101084.50;5092446;28;20489;-35
2021/08/20 00:09:14;;;;;;;0.73;0.73;;;22.50;52.60;;;26.25;35.96;101074.75;5092429;28;20052;-35
2021/08/20 00:11:40;;;;;;;0.80;0.80;;;22.50;52.70;;;26.25;36.12;101079.25;5092309;28;20044;-35
2021/08/20 00:14:08;;;;;;;1.35;0.90;;;22.50;52.70;;;26.26;36.12;101080.94;5092477;28;20044;-35
2021/08/20 00:16:34;;;;;;;0.70;0.70;;;22.50;52.70;;;26.24;35.98;101086.47;5093885;28;20059;-35
2021/08/20 00:19:01;;;;;;;0.80;0.80;;;22.50;52.70;;;26.24;35.99;101088.28;5096058;28;20044;-35
2021/08/20 00:21:27;;;;;;;1.20;1.10;;;22.50;52.70;;;26.20;36.07;101070.75;5096334;28;20048;-35
2021/08/20 00:23:53;;;;;;;0.80;0.80;;;22.50;52.70;;;26.21;36.11;101073.31;5075821;28;20190;-35
2021/08/20 00:26:18;;;;;;;0.63;0.63;;;22.50;52.70;;;26.23;35.99;101076.72;5096437;28;20056;-35
2021/08/20 00:28:44;;;;;;;1.05;0.93;;;22.50;52.70;;;26.22;36.08;101074.16;5095875;28;20059;-35
2021/08/20 00:31:10;;;;;;;0.75;0.75;;;22.50;52.70;;;26.22;36.20;101069.63;5095247;28;20039;-35
2021/08/20 00:33:37;;;;;;;0.82;0.82;;;22.50;52.70;;;26.21;35.92;101069.75;5095908;28;20083;-35
2021/08/20 00:36:04;;;;;;;0.90;0.90;;;22.50;52.70;;;26.21;36.03;101077.78;5094359;28;20055;-35
2021/08/20 00:38:31;;;;;;;0.90;0.90;;;22.50;52.80;;;26.20;36.14;101073.44;5095710;28;20098;-35
2021/08/20 00:40:57;;;;;;;0.80;0.80;;;22.50;52.70;;;26.21;36.30;101077.78;5094504;28;20048;-35
2021/08/20 00:43:25;;;;;;;0.65;0.65;;;22.50;52.80;;;26.19;36.12;101069.03;5095762;28;20043;-35
2021/08/20 00:46:00;;;;;;;0.70;0.70;;;22.50;52.80;;;26.18;36.16;101075.38;5095924;28;20055;-35
2021/08/20 00:48:27;;;;;;;0.80;0.80;;;22.50;52.80;;;26.20;36.12;101081.47;5095579;28;20044;-35
2021/08/20 00:51:14;;;;;;;0.77;0.77;;;22.50;52.80;;;26.16;36.22;101075.50;5095601;28;20143;-35
2021/08/20 00:53:40;;;;;;;0.85;0.85;;;22.50;52.80;;;26.17;36.14;101071.84;5095913;28;20044;-35
2021/08/20 00:56:06;;;;;;;0.85;0.85;;;22.50;52.80;;;26.19;36.20;101077.06;5095601;28;20044;-35
2021/08/20 00:58:35;;;;;;;0.80;0.80;;;22.50;52.80;;;26.14;36.18;101068.56;5077460;28;20101;-35
2021/08/20 01:01:03;;;;;;;1.10;1.00;;;22.40;52.80;;;26.16;36.15;101069.28;5077272;28;20036;-35
2021/08/20 01:03:30;;;;;;;0.80;0.80;;;22.50;52.80;;;26.14;36.00;101071.22;5095445;28;20177;-35
2021/08/20 01:05:57;;;;;;;0.85;0.85;;;22.50;52.80;;;26.14;36.13;101072.06;5095355;28;20534;-35
2021/08/20 01:08:26;;;;;;;0.77;0.77;;;22.40;52.80;;;26.15;36.07;101067.59;5094327;28;20044;-35
2021/08/20 01:10:54;;;;;;;0.75;0.75;;;22.40;53.30;;;26.15;36.13;101072.94;5077381;28;20516;-35
2021/08/20 01:13:21;;;;;;;0.82;0.82;;;22.50;52.80;;;26.14;36.16;101068.56;5093824;28;20063;-35
2021/08/20 01:15:48;;;;;;;0.68;0.68;;;22.40;52.80;;;26.14;36.22;101074.75;5077053;28;20390;-35
2021/08/20 01:18:32;;;;;;;0.77;0.70;;;22.40;52.80;;;26.10;36.16;101067.13;5091814;28;20053;-35
2021/08/20 01:21:08;;;;;;;0.87;0.87;;;22.40;52.80;;;26.12;36.04;101067.84;5092593;28;20045;-35
2021/08/20 01:23:35;;;;;;;0.70;0.70;;;22.40;52.90;;;26.14;36.10;101076.59;5076967;28;20381;-35
2021/08/20 01:26:03;;;;;;;1.20;1.10;;;22.40;52.90;;;26.10;36.30;101062.59;5094096;28;20047;-35
2021/08/20 01:28:29;;;;;;;0.80;0.80;;;22.40;52.90;;;26.09;36.26;101070.75;5076616;28;20093;-35
2021/08/20 01:31:01;;;;;;;0.80;0.80;;;22.40;52.90;;;26.11;36.24;101079.50;5076806;28;20479;-35
2021/08/20 01:33:28;;;;;;;0.80;0.70;;;22.40;52.90;;;26.10;36.19;101072.47;5094192;28;20109;-35
2021/08/20 01:35:54;;;;;;;0.80;0.80;;;22.40;52.90;;;26.08;36.05;101064.56;5093537;28;20462;-35
2021/08/20 01:38:20;;;;;;;0.77;0.77;;;22.40;52.90;;;26.10;36.24;101065.28;5095129;28;20133;-34
2021/08/20 01:40:46;;;;;;;0.70;0.70;;;22.40;52.90;;;26.07;36.16;101065.53;5092764;28;20048;-35
2021/08/20 01:43:15;;;;;;;0.80;0.80;;;22.40;52.90;;;26.07;36.25;101055.63;5093783;28;20131;-35
2021/08/20 01:45:43;;;;;;;0.80;0.80;;;22.40;53.00;;;26.08;36.10;101059.19;5093666;28;20044;-35
2021/08/20 01:48:09;;;;;;;0.80;0.80;;;22.40;52.90;;;26.10;36.24;101064.44;5093551;28;20048;-35
2021/08/20 01:50:39;;;;;;;0.90;0.90;;;22.30;52.90;;;26.07;36.27;101058.31;5092022;28;20048;-35
2021/08/20 01:53:13;;;;;;;0.85;0.85;;;22.40;53.00;;;26.06;36.04;101058.44;5094628;28;20044;-35
2021/08/20 01:55:43;;;;;;;0.80;0.80;;;22.40;53.00;;;26.06;36.26;101053.09;5076791;28;20048;-35
2021/08/20 01:58:11;;;;;;;0.50;0.50;;;22.30;52.90;;;26.06;36.24;101048.59;5060573;28;20044;-35
2021/08/20 02:00:39;;;;;;;0.82;0.82;;;22.40;53.00;;;26.05;36.24;101046.03;5093231;28;20079;-35
2021/08/20 02:03:05;;;;;;;0.75;0.75;;;22.30;52.90;;;26.05;36.15;101046.88;5073289;28;20037;-35
2021/08/20 02:05:32;;;;;;;0.80;0.80;;;22.30;52.90;;;26.07;36.19;101052.97;5076095;28;20105;-35
2021/08/20 02:08:00;;;;;;;0.80;0.80;;;22.30;52.90;;;26.03;36.26;101046.16;5058997;28;20048;-35
2021/08/20 02:10:27;;;;;;;0.80;0.80;;;22.30;53.00;;;26.06;36.17;101048.59;5076432;28;20450;-35
2021/08/20 02:12:55;;;;;;;0.77;0.77;;;22.30;53.50;;;26.05;36.07;101049.56;5076136;28;20101;-35
2021/08/20 02:15:26;;;;;;;0.80;0.80;;;22.30;53.50;;;26.05;36.19;101057.59;5076099;28;20051;-35
2021/08/20 02:17:52;;;;;;;0.70;0.70;;;22.30;53.00;;;26.02;36.31;101057.84;5092712;28;20052;-35
2021/08/20 02:20:18;;;;;;;0.75;0.75;;;22.30;53.00;;;26.02;36.19;101055.16;5092863;28;20048;-35
2021/08/20 02:22:46;;;;;;;1.30;0.75;;;22.30;53.00;;;26.02;36.30;101063.19;5092486;28;20058;-35
2021/08/20 02:25:12;;;;;;;0.70;0.70;;;22.30;53.00;;;26.05;36.37;101064.78;5094019;28;20505;-35
2021/08/20 02:27:39;;;;;;;0.73;0.73;;;22.30;53.00;;;26.02;36.23;101062.38;5091122;28;20056;-35
2021/08/20 02:30:06;;;;;;;0.80;0.80;;;22.30;53.00;;;26.03;36.32;101069.44;5075828;28;20090;-35
2021/08/20 02:32:40;;;;;;;0.75;0.75;;;22.30;53.00;;;26.01;36.38;101053.47;5093167;28;20040;-35
2021/08/20 02:35:06;;;;;;;0.80;0.80;;;22.30;53.10;;;25.99;36.27;101050.06;5092674;28;20410;-35
2021/08/20 02:37:32;;;;;;;1.00;0.98;;;22.30;53.00;;;25.98;36.41;101053.72;5093081;28;20153;-35
2021/08/20 02:39:57;;;;;;;0.70;0.70;;;22.30;53.10;;;26.02;36.28;101059.69;5092285;28;20052;-35
2021/08/20 02:42:23;;;;;;;0.80;0.80;;;22.30;53.10;;;26.02;36.33;101059.69;5075655;28;20047;-35
2021/08/20 02:44:49;;;;;;;1.42;0.80;;;22.30;53.10;;;26.00;36.34;101062.47;5094175;28;20097;-35
2021/08/20 02:47:15;;;;;;;0.93;0.93;;;22.30;53.10;;;26.01;36.28;101066.00;5093683;28;20052;-35
2021/08/20 02:49:42;;;;;;;0.75;0.75;;;22.30;53.10;;;26.01;36.38;101069.56;5093067;28;20048;-35
2021/08/20 02:52:11;;;;;;;0.80;0.80;;;22.30;53.10;;;25.99;36.43;101059.91;5076227;28;20089;-35
2021/08/20 02:54:37;;;;;;;0.95;0.85;;;22.30;53.10;;;26.01;36.28;101063.31;5075388;28;20052;-35
2021/08/20 02:57:03;;;;;;;0.70;0.70;;;22.30;53.10;;;26.00;36.34;101057.13;5091561;28;20518;-35
2021/08/20 02:59:32;;;;;;;0.80;0.80;;;22.30;53.10;;;25.97;36.38;101049.31;5091385;28;20044;-35
2021/08/20 03:02:00;;;;;;;0.80;0.80;;;22.30;53.10;;;26.00;36.28;101053.59;5075227;28;20044;-35
2021/08/20 03:04:26;;;;;;;0.80;0.80;;;22.30;53.10;;;25.97;36.23;101062.72;5092023;28;20055;-35
2021/08/20 03:06:54;;;;;;;0.82;0.82;;;22.30;53.10;;;25.97;36.39;101060.03;5075023;28;20075;-35
2021/08/20 03:09:33;;;;;;;0.80;0.80;;;22.20;53.10;;;26.00;36.29;101059.81;5075653;28;20040;-35
2021/08/20 03:12:00;;;;;;;0.90;0.90;;;22.30;53.10;;;25.97;36.31;101053.84;5094081;28;20283;-35
2021/08/20 03:14:26;;;;;;;0.82;0.80;;;22.30;53.10;;;25.96;36.34;101053.00;5092643;28;20047;-35
2021/08/20 03:16:55;;;;;;;0.82;0.82;;;22.20;53.20;;;25.96;36.39;101053.00;5075097;28;20451;-35
2021/08/20 03:19:22;;;;;;;0.75;0.70;;;22.20;53.10;;;25.94;36.35;101048.69;5073925;28;20493;-35
2021/08/20 03:21:48;;;;;;;0.85;0.85;;;22.20;53.10;;;25.96;36.33;101046.78;5072885;28;20049;-34
2021/08/20 03:24:16;;;;;;;0.80;0.80;;;22.20;53.10;;;25.96;36.51;101057.47;5073520;28;20091;-35
2021/08/20 03:26:41;;;;;;;1.08;1.00;;;22.30;53.20;;;25.93;36.30;101045.16;5074791;28;20074;-35
2021/08/20 03:29:08;;;;;;;0.90;0.90;;;22.20;53.20;;;25.96;36.31;101046.78;5091615;28;20048;-35
2021/08/20 03:31:44;;;;;;;0.73;0.73;;;22.30;53.70;;;25.96;36.30;101053.00;5074942;28;20044;-35
2021/08/20 03:34:10;;;;;;;0.90;0.90;;;22.20;53.20;;;25.97;36.35;101056.53;5074801;28;20447;-35
2021/08/20 03:36:38;;;;;;;0.80;0.80;;;22.20;53.10;;;25.98;36.35;101056.41;5093119;28;20130;-35
2021/08/20 03:39:13;;;;;;;0.63;0.63;;;22.20;53.10;;;26.00;36.19;101056.28;5091533;28;20052;-35
2021/08/20 03:41:39;;;;;;;1.00;0.90;;;22.30;53.20;;;25.95;36.25;101053.09;5073063;28;20144;-35
2021/08/20 03:44:09;;;;;;;0.90;0.90;;;22.30;53.20;;;25.98;36.33;101064.44;5074674;28;20050;-34
2021/08/20 03:46:42;;;;;;;0.90;0.90;;;22.30;53.10;;;26.00;36.43;101058.97;5091391;28;20722;-35
2021/08/20 03:49:08;;;;;;;0.80;0.80;;;22.30;53.10;;;25.96;36.30;101053.00;5090262;28;20044;-35
2021/08/20 03:51:34;;;;;;;0.90;0.80;;;22.30;53.10;;;26.00;36.43;101064.31;5070473;28;20360;-35
2021/08/20 03:54:03;;;;;;;0.70;0.70;;;22.20;53.10;;;26.00;36.34;101053.59;5091551;28;20477;-35
2021/08/20 03:56:29;;;;;;;0.80;0.80;;;22.30;53.20;;;25.98;36.30;101055.56;5091478;28;20448;-35
2021/08/20 03:59:08;;;;;;;0.70;0.70;;;22.20;53.10;;;25.98;36.31;101059.06;5091791;28;20044;-35
2021/08/20 04:01:34;;;;;;;0.80;0.80;;;22.20;53.10;;;26.00;36.27;101053.59;5072997;28;20378;-35
2021/08/20 04:04:01;;;;;;;0.75;0.75;;;22.20;53.10;;;25.97;36.17;101048.47;5074072;28;20060;-35
2021/08/20 04:06:39;;;;;;;0.80;0.80;;;22.20;53.10;;;25.96;36.35;101047.66;5070983;28;20053;-35
2021/08/20 04:09:06;;;;;;;0.80;0.80;;;22.20;53.10;;;25.98;36.29;101053.72;5074391;28;20063;-35
2021/08/20 04:12:00;;;;;;;0.70;0.70;;;22.30;53.10;;;25.98;36.31;101055.56;5020171;28;20050;-35
2021/08/20 04:14:33;;;;;;;0.90;0.90;;;22.20;53.10;;;25.98;36.29;101060.91;5091199;28;20453;-35
2021/08/20 04:17:00;;;;;;;0.85;0.85;;;22.30;53.10;;;25.98;36.29;101058.25;5090897;28;20105;-35
2021/08/20 04:19:27;;;;;;;0.80;0.80;;;22.20;53.10;;;25.97;36.29;101060.03;5074758;28;20048;-35
2021/08/20 04:21:53;;;;;;;0.70;0.70;;;22.20;53.10;;;25.98;36.38;101060.91;5091096;28;20397;-35
2021/08/20 04:24:19;;;;;;;0.73;0.73;;;22.30;53.20;;;26.00;36.47;101067.84;5091090;28;20079;-35
2021/08/20 04:26:47;;;;;;;0.65;0.65;;;22.20;53.10;;;26.00;36.41;101073.19;5073601;28;20065;-35
2021/08/20 04:29:19;;;;;;;0.60;0.60;;;22.20;53.10;;;26.00;36.30;101064.31;5092407;28;20114;-35
2021/08/20 04:32:02;;;;;;;1.00;0.90;;;22.30;53.20;;;26.02;36.27;101075.75;5091353;28;20044;-35
2021/08/20 04:34:48;;;;;;;1.35;0.90;;;22.20;53.10;;;26.03;36.37;101082.84;5090904;28;20567;-35
2021/08/20 04:37:44;;;;;;;0.70;0.70;;;22.20;53.10;;;26.01;36.19;101082.94;5078568;28;20052;-35
2021/08/20 04:40:30;;;;;;;1.17;1.08;;;22.20;53.10;;;26.00;36.34;101083.06;5072257;28;20101;-35
2021/08/20 04:43:18;;;;;;;1.13;1.02;;;22.20;53.10;;;26.02;36.28;101092.69;5092546;28;20041;-35
2021/08/20 04:45:51;;;;;;;0.70;0.70;;;22.20;53.10;;;26.03;36.21;101088.19;5073874;28;20111;-35
2021/08/20 04:48:36;;;;;;;0.93;0.93;;;22.20;53.10;;;26.02;36.26;101084.63;5091934;28;20535;-35
2021/08/20 04:51:20;;;;;;;0.90;0.90;;;22.20;53.10;;;26.01;36.22;101084.75;5092435;28;20094;-35
2021/08/20 04:54:09;;;;;;;1.02;0.90;;;22.20;53.10;;;25.99;36.27;101084.88;5074207;28;20063;-35
2021/08/20 04:56:44;;;;;;;0.70;0.70;;;22.20;53.10;;;26.02;36.31;101087.31;5070240;28;20138;-35
2021/08/20 04:59:10;;;;;;;0.80;0.80;;;22.30;53.10;;;25.98;36.15;101088.56;5091748;28;20142;-35
2021/08/20 05:01:38;;;;;;;0.70;0.70;;;22.20;53.10;;;26.00;36.26;101089.28;5091870;28;20044;-35
2021/08/20 05:04:04;;;;;;;0.93;0.93;;;22.30;53.10;;;26.02;36.22;101092.69;5095533;28;20044;-35
2021/08/20 05:06:30;;;;;;;0.70;0.70;;;22.30;53.10;;;26.04;36.17;101098.78;5095435;28;20036;-35
2021/08/20 05:08:56;;;;;;;0.70;0.70;;;22.20;53.10;;;26.03;36.20;101097.06;5093343;28;20113;-35
2021/08/20 05:11:22;;;;;;;0.80;0.80;;;22.30;53.10;;;26.02;36.22;101092.69;5092773;28;20052;-35
2021/08/20 05:13:48;;;;;;;0.85;0.85;;;22.30;53.10;;;26.03;36.39;101106.94;5094313;28;20136;-35
2021/08/20 05:16:14;;;;;;;0.80;0.80;;;22.30;53.10;;;26.03;36.20;101102.44;5095550;28;20052;-35
2021/08/20 05:18:40;;;;;;;0.73;0.73;;;22.30;53.10;;;26.05;36.25;101099.63;5095720;28;20134;-35
2021/08/20 05:21:05;;;;;;;0.80;0.80;;;22.20;53.00;;;26.04;36.27;101103.28;5095135;28;20499;-35
2021/08/20 05:23:31;;;;;;;0.70;0.70;;;22.30;53.10;;;26.05;36.12;101105.84;5095165;28;20048;-35
2021/08/20 05:25:57;;;;;;;0.70;0.70;;;22.20;53.10;;;26.03;36.26;101102.44;5094951;28;20044;-35
2021/08/20 05:28:22;;;;;;;1.23;0.80;;;22.30;53.10;;;26.05;36.16;101113.03;5094906;28;20082;-35
2021/08/20 05:30:49;;;;;;;0.63;0.63;;;22.20;53.10;;;26.05;36.25;101116.56;5095669;28;20371;-35
2021/08/20 05:33:15;;;;;;;0.70;0.70;;;22.30;53.10;;;26.03;36.17;101110.47;5095038;28;20048;-35
2021/08/20 05:35:41;;;;;;;0.70;0.70;;;22.30;53.10;;;26.05;36.20;101108.50;5095007;28;20464;-35
2021/08/20 05:38:07;;;;;;;0.60;0.60;;;22.30;53.10;;;26.02;36.21;101103.41;5094861;28;20055;-35
2021/08/20 05:40:32;;;;;;;0.80;0.80;;;22.30;53.10;;;26.04;36.08;101112.19;5094842;28;20048;-34
2021/08/20 05:42:59;;;;;;;0.80;0.80;;;22.30;53.10;;;26.04;36.05;101111.31;5095279;28;20056;-35
2021/08/20 05:45:25;;;;;;;0.70;0.70;;;22.30;53.10;;;26.05;36.10;101111.19;5095070;28;20052;-34
2021/08/20 05:47:51;;;;;;;0.80;0.80;;;22.30;53.10;;;26.08;36.13;101118.16;5094522;28;20546;-34
2021/08/20 05:50:17;;;;;;;0.73;0.73;;;22.30;53.10;;;26.09;36.10;101109.13;5094496;28;20040;-35
2021/08/20 05:52:42;;;;;;;0.90;0.88;;;22.30;53.00;;;26.11;36.11;101114.34;5094626;28;20059;-35
2021/08/20 05:55:10;;;;;;;0.77;0.77;;;22.30;53.00;;;26.10;36.17;101116.19;5094562;28;20040;-35
2021/08/20 05:57:36;;;;;;;0.80;0.80;;;22.30;53.00;;;26.11;36.13;101125.06;5094478;28;20055;-35
2021/08/20 06:00:05;;;;;;;0.93;0.90;;;22.30;53.00;;;26.12;36.17;101118.75;5094360;28;20123;-35
2021/08/20 06:02:41;;;;;;;0.80;0.80;;;22.30;53.00;;;26.13;36.10;101125.78;5094560;28;20511;-35
2021/08/20 06:05:10;;;;;;;0.90;0.90;;;22.30;53.00;;;26.15;35.99;101129.22;5074936;28;20045;-35
2021/08/20 06:07:36;;;;;;;0.77;0.77;;;22.30;53.00;;;26.14;36.19;101123.00;5075924;28;20137;-35
2021/08/20 06:10:04;;;;;;;0.93;0.93;;;22.30;52.90;;;26.15;35.95;101129.22;5094299;28;20131;-35
2021/08/20 06:12:30;;;;;;;1.08;1.00;;;22.30;52.90;;;26.17;35.95;101129.94;5075955;28;20056;-35
2021/08/20 06:14:57;;;;;;;0.90;0.90;;;22.30;52.90;;;26.17;35.90;101125.44;5093373;28;20059;-35
2021/08/20 06:17:23;;;;;;;0.93;0.80;;;22.30;52.90;;;26.16;35.81;101125.56;5094504;28;20457;-35
2021/08/20 06:19:49;;;;;;;0.80;0.80;;;22.40;53.00;;;26.19;35.98;101134.19;5094467;28;20059;-35
2021/08/20 06:22:15;;;;;;;0.77;0.77;;;22.40;52.90;;;26.17;35.92;101127.28;5094201;28;20052;-35
2021/08/20 06:24:40;;;;;;;1.02;1.00;;;22.30;52.80;;;26.19;35.75;101122.63;5094098;28;20405;-35
2021/08/20 06:27:06;;;;;;;0.73;0.73;;;22.40;52.80;;;26.22;35.87;101125.06;5094094;28;20497;-35
2021/08/20 06:29:32;;;;;;;0.77;0.77;;;22.40;52.80;;;26.24;35.95;101131.16;5094267;28;20477;-35
2021/08/20 06:31:58;;;;;;;0.80;0.80;;;22.40;52.80;;;26.23;35.84;101122.28;5076116;28;20386;-35
2021/08/20 06:34:24;;;;;;;0.80;0.80;;;22.40;52.90;;;26.24;35.73;101120.44;5093862;28;20055;-35
2021/08/20 06:36:51;;;;;;;0.82;0.82;;;22.40;52.90;;;26.24;35.78;101125.78;5093804;28;20048;-35
2021/08/20 06:39:17;;;;;;;1.02;0.80;;;22.40;52.80;;;26.24;35.80;101132.03;5093945;28;20048;-35
2021/08/20 06:41:43;;;;;;;0.80;0.80;;;22.40;52.90;;;26.22;35.81;101125.91;5093638;28;20058;-35
2021/08/20 06:44:10;;;;;;;0.80;0.80;;;22.30;52.80;;;26.21;35.80;101126.91;5075433;28;20197;-35
2021/08/20 06:46:36;;;;;;;0.70;0.70;;;22.40;52.90;;;26.23;35.79;101129.47;5093305;28;20044;-35
2021/08/20 06:49:02;;;;;;;0.80;0.80;;;22.40;52.90;;;26.24;35.75;101131.16;5093987;28;20052;-35
2021/08/20 06:51:28;;;;;;;0.82;0.82;;;22.40;52.80;;;26.28;35.98;101138.00;5075402;28;20055;-35
2021/08/20 06:53:54;;;;;;;0.70;0.70;;;22.40;52.80;;;26.29;35.85;101141.50;5093676;28;20048;-35
2021/08/20 06:56:20;;;;;;;0.60;0.60;;;22.40;52.80;;;26.24;35.67;101145.44;5093797;28;20055;-35
2021/08/20 06:58:46;;;;;;;0.82;0.82;;;22.40;52.80;;;26.23;35.90;101145.56;5091074;28;20052;-35
2021/08/20 07:01:12;;;;;;;0.60;0.60;;;22.30;52.80;;;26.22;35.75;101154.56;5093842;28;20108;-35
2021/08/20 07:03:38;;;;;;;0.70;0.70;;;22.30;52.80;;;26.21;35.75;101159.06;5094036;28;20044;-35
2021/08/20 07:06:03;;;;;;;1.23;1.13;;;22.30;52.90;;;26.22;35.91;101157.25;5093443;28;20135;-35
2021/08/20 07:08:29;;;;;;;0.80;0.80;;;22.30;52.90;;;26.17;35.94;101159.44;5093404;28;20102;-35
2021/08/20 07:10:55;;;;;;;0.75;0.75;;;22.30;52.90;;;26.18;35.89;101171.88;5093378;28;20044;-35
2021/08/20 07:13:21;;;;;;;0.80;0.80;;;22.30;53.00;;;26.16;35.98;101168.44;5094014;28;20048;-33
2021/08/20 07:15:47;;;;;;;0.77;0.77;;;22.30;53.00;;;26.15;35.91;101174.78;5093126;28;20086;-36
2021/08/20 07:18:13;;;;;;;0.73;0.73;;;22.30;53.00;;;26.10;35.85;101167.09;5093405;28;20048;-35
2021/08/20 07:20:39;;;;;;;0.70;0.70;;;22.30;53.00;;;26.12;35.98;101164.31;5093024;28;20102;-35
2021/08/20 07:23:05;;;;;;;0.80;0.80;;;22.30;53.00;;;26.13;35.90;101168.69;5093236;28;20048;-35
2021/08/20 07:25:31;;;;;;;0.70;0.70;;;22.30;53.00;;;26.12;35.93;101169.66;5092960;28;20044;-35
2021/08/20 07:27:57;;;;;;;0.70;0.70;;;22.30;53.00;;;26.15;36.01;101175.63;5093284;28;20048;-35
2021/08/20 07:30:22;;;;;;;0.70;0.70;;;22.30;53.00;;;26.15;35.98;101172.94;5092987;28;20055;-36
2021/08/20 07:32:49;;;;;;;0.73;0.73;;;22.30;52.90;;;26.16;36.00;101169.31;5093272;28;20052;-35
2021/08/20 07:35:15;;;;;;;0.70;0.70;;;22.30;52.90;;;26.14;36.03;101160.50;5093098;28;20074;-35
2021/08/20 07:37:41;;;;;;;0.73;0.73;;;22.30;52.90;;;26.17;35.91;101168.31;5093359;28;20389;-35
2021/08/20 07:40:09;;;;;;;0.90;0.90;;;22.30;52.90;;;26.18;35.78;101170.03;5092808;28;20044;-33
2021/08/20 07:42:35;;;;;;;0.80;0.80;;;22.40;53.00;;;26.20;35.88;101172.59;5093052;28;20058;-34
2021/08/20 07:45:01;;;;;;;0.60;0.60;;;22.40;52.90;;;26.18;35.87;101180.75;5093081;28;20044;-34
2021/08/20 07:47:27;;;;;;;0.85;0.85;;;22.40;52.90;;;26.23;35.87;101180.41;5092531;28;20059;-34
2021/08/20 07:49:53;;;;;;;0.60;0.60;;;22.40;52.90;;;26.23;35.87;101172.34;5092748;28;20040;-34
2021/08/20 07:52:19;;;;;;;0.60;0.60;;;22.40;52.90;;;26.24;35.73;101180.28;5092708;28;20382;-33
2021/08/20 07:54:44;;;;;;;0.80;0.80;;;22.40;52.80;;;26.23;35.76;101183.91;5092983;28;20059;-34
2021/08/20 07:57:10;;;;;;;0.70;0.70;;;22.40;52.80;;;26.24;35.94;101184.75;5092251;28;20516;-34
2021/08/20 07:59:36;;;;;;;0.90;0.90;;;22.40;52.80;;;26.26;35.75;101188.16;5092782;28;20473;-34
2021/08/20 08:02:02;;;;;;;0.70;0.70;;;22.40;52.80;;;26.27;35.73;101186.38;5092618;28;20044;-34
2021/08/20 08:04:28;;;;;;;0.70;0.70;;;22.40;52.80;;;26.28;35.73;101191.59;5092628;28;20073;-34
2021/08/20 08:06:54;;;;;;;0.70;0.70;;;22.40;52.80;;;26.28;35.78;101183.56;5092347;28;20052;-34
2021/08/20 08:09:20;;;;;;;0.70;0.70;;;22.40;52.70;;;26.30;35.61;101181.59;5092661;28;20109;-34
2021/08/20 08:11:46;;;;;;;0.77;0.60;;;22.40;52.70;;;26.32;35.64;101181.47;5092436;28;20105;-34
2021/08/20 08:14:11;;;;;;;0.80;0.80;;;22.40;52.70;;;26.35;35.76;101191.97;5092417;28;20044;-35
2021/08/20 08:16:41;;;;;;;0.80;0.80;;;22.40;52.70;;;26.34;35.59;101193.78;5092447;28;20050;-34
2021/08/20 08:19:08;;;;;;;1.10;1.00;;;22.40;52.70;;;26.32;35.59;101194.88;5092190;28;20048;-34
2021/08/20 08:21:34;;;;;;;0.75;0.75;;;22.40;52.70;;;26.33;35.69;101189.41;5091846;28;20059;-34
2021/08/20 08:24:00;;;;;;;0.80;0.80;;;22.40;52.70;;;26.30;35.65;101183.44;5092286;28;20451;-34
2021/08/20 08:26:26;;;;;;;0.65;0.60;;;22.50;52.70;;;26.35;35.65;101198.16;5092594;28;20098;-35
2021/08/20 08:28:55;;;;;;;0.75;0.75;;;22.40;52.70;;;26.32;35.64;101190.38;5092176;28;20080;-35
2021/08/20 08:31:22;;;;;;;0.70;0.70;;;22.40;52.70;;;26.34;35.67;101185.72;5092271;28;20130;-34
2021/08/20 08:33:48;;;;;;;0.68;0.68;;;22.40;52.70;;;26.37;35.65;101192.69;5092285;28;20040;-34
2021/08/20 08:36:14;;;;;;;0.88;0.75;;;22.40;52.70;;;26.36;35.64;101185.59;5092203;28;20048;-34
2021/08/20 08:38:40;;;;;;;0.70;0.70;;;22.50;52.70;;;26.38;35.63;101197.94;5095744;28;20079;-34
2021/08/20 08:41:06;;;;;;;0.80;0.80;;;22.40;52.60;;;26.40;35.62;101205.84;5095699;28;20044;-34
2021/08/20 08:43:32;;;;;;;1.00;0.90;;;22.50;52.60;;;26.41;35.53;101208.41;5077506;28;20060;-34
2021/08/20 08:46:04;;;;;;;1.40;0.82;;;22.50;52.60;;;26.40;35.63;101195.13;5095839;28;20122;-34
2021/08/20 08:48:32;;;;;;;0.88;0.80;;;22.50;52.60;;;26.44;35.41;101201.94;5095508;28;20040;-35
2021/08/20 08:51:02;;;;;;;0.70;0.70;;;22.50;52.60;;;26.43;35.50;101200.25;5077706;28;20083;-34
2021/08/20 08:53:27;;;;;;;0.63;0.63;;;22.50;52.60;;;26.47;35.58;101195.50;5094345;28;20048;-34
2021/08/20 08:55:54;;;;;;;0.65;0.65;;;22.50;52.50;;;26.50;35.61;101185.38;5094268;28;20097;-34
2021/08/20 08:58:19;;;;;;;0.88;0.88;;;22.50;52.50;;;26.51;35.40;101189.72;5095776;28;20048;-34
2021/08/20 09:00:45;;;;;;;1.08;0.98;;;22.50;52.50;;;26.52;35.59;101198.66;5095393;28;20063;-34
2021/08/20 09:03:28;;;;;;;0.60;0.60;;;22.60;52.60;;;26.54;35.38;101205.59;5095607;28;20097;-34
2021/08/20 09:05:55;;;;;;;0.90;0.90;;;22.60;52.50;;;26.56;35.39;101205.47;5094813;28;20062;-35
2021/08/20 09:08:24;;;;;;;1.13;0.80;;;22.60;52.50;;;26.55;35.49;101214.50;5095521;28;20481;-35
2021/08/20 09:10:58;;;;;;;1.08;0.95;;;22.60;52.50;;;26.55;35.47;101223.38;5095192;28;20078;-34
2021/08/20 09:13:25;;;;;;;0.60;0.60;;;22.60;52.50;;;26.56;35.36;101221.56;5095566;28;20068;-34
2021/08/20 09:16:12;;;;;;;0.80;0.80;;;22.60;52.60;;;26.50;35.42;101219.38;5095053;28;20086;-35
2021/08/20 09:18:40;;;;;;;0.68;0.68;;;22.60;52.60;;;26.52;35.33;101218.28;5095235;28;20055;-34
2021/08/20 09:21:07;;;;;;;0.90;0.90;;;22.50;53.10;;;26.57;35.46;101213.38;5095097;28;20072;-34
2021/08/20 09:23:33;;;;;;;0.73;0.73;;;22.60;52.50;;;26.61;35.39;101214.00;5095089;28;20055;-35
2021/08/20 09:26:00;;;;;;;0.70;0.70;;;22.70;52.40;;;26.64;35.20;101204.88;5095171;28;20050;-34
2021/08/20 09:28:34;;;;;;;0.70;0.70;;;22.70;52.30;;;26.70;35.25;101207.94;5094898;28;20504;-34
2021/08/20 09:31:11;;;;;;;1.00;1.00;;;22.70;52.20;;;26.76;35.20;101202.06;5094923;28;20066;-35
2021/08/20 09:33:44;;;;;;;1.60;0.80;;;22.80;52.10;;;26.83;34.96;101191.69;5095208;28;20052;-35
2021/08/20 09:36:21;;;;;;;0.85;0.85;;;22.90;52.10;;;26.88;34.99;101202.03;5095127;28;20040;-35
2021/08/20 09:38:54;;;;;;;2.15;0.80;;;22.90;51.90;;;26.86;35.05;101190.56;5094721;28;20136;-35
2021/08/20 09:41:34;;;;;;;0.70;0.70;;;22.90;51.90;;;26.92;34.94;101196.28;5095088;28;20131;-35
2021/08/20 09:44:05;;;;;;;0.68;0.68;;;22.90;51.90;;;27.06;34.67;101199.66;5094915;28;20397;-35
2021/08/20 09:47:02;;;;;;;;;;;23.00;51.80;;;27.22;34.48;101192.03;5095018;28;20052;-36
2021/08/20 09:49:30;;;;;;;0.88;0.63;;;23.00;51.70;;;27.14;34.33;101202.56;5092239;28;19923;-36
2021/08/20 09:51:58;;;;;;;1.30;0.77;;;23.00;51.70;;;27.07;34.53;101202.22;5076507;28;20474;-35
2021/08/20 09:54:26;;;;;;;1.05;0.95;;;22.90;51.70;;;27.02;34.64;101203.59;5076534;28;20435;-35
2021/08/20 09:56:53;;;;;;;1.23;0.90;;;22.90;51.90;;;26.91;34.82;101199.09;5094415;28;20039;-35
2021/08/20 09:59:19;;;;;;;0.80;0.80;;;22.80;52.00;;;26.87;34.58;101209.22;5094294;28;20052;-35
2021/08/20 10:01:47;;;;;;;0.90;0.90;;;22.70;52.20;;;26.81;35.03;101207.03;5094201;28;20090;-35
2021/08/20 10:04:16;;;;;;;2.22;0.93;;;22.70;52.30;;;26.76;34.96;101201.19;5094520;28;20040;-35
2021/08/20 10:06:44;;;;;;;0.70;0.70;;;22.70;52.30;;;26.74;35.06;101213.88;5094170;28;20059;-35
2021/08/20 10:09:16;;;;;;;1.13;1.00;;;22.70;52.40;;;26.71;35.00;101212.28;5094161;28;20058;-35
2021/08/20 10:11:51;;;;;;;1.23;0.80;;;22.70;52.40;;;26.71;35.21;101206.09;5094109;28;20194;-35
2021/08/20 10:14:19;;;;;;;1.58;0.82;;;22.70;52.40;;;26.72;35.07;101197.91;5094269;28;20074;-35
2021/08/20 10:16:45;;;;;;;1.20;1.00;;;22.80;52.30;;;26.76;35.21;101198.50;5092605;28;20049;-34
2021/08/20 10:19:12;;;;;;;1.10;1.00;;;22.80;52.20;;;26.78;34.96;101196.56;5091464;28;20485;-33